Usu, China
Current Conditions -  °F | °C
As of 1:00 AM on Friday 24 Oct 2014 (Local Time) from ZWWW Reporting Station
Smoke Smoke  
Wind Chill: 50°   Ceiling: Unl
Heat Index: 50°   Visibility: 1.8mi
Dew Point: 41°   Wind: 7mph
Humidity: 71%   Direction: 280°W
Pressure: 29.88"   Gusts: NA
Location:  44.45°N, 84.62°E
Report Text: ZWWW 231700Z 28003MPS 3000 FU NSC 10/05 Q1012 NOSIG
Loading
Personal Weather Stations






























Interactive Weather Map
Tropical Storm Tracking
New forecast layout! Learn more

10-Day Weather Forecast

Advertisements
Track Severe Weather on mobile